Bainbridge, Georgia
Current Conditions -  °F | °C
As of 1:15 AM on Monday 22 Dec 2014 (Local Time) from KBGE Reporting Station
Haze Haze  
Wind Chill: 54°   Ceiling: 300
Heat Index: 54°   Visibility: 1mi
Dew Point: 54°   Wind: 7mph
Humidity: 100%   Direction: 50°NE
Pressure: 29.99"   Gusts: NA
Location:  30.91°N, 84.57°W
Report Text: KBGE 220615Z AUTO 05006KT 1SM BR OVC003 12/12 A2999 RMK AO2
Loading
Personal Weather Stations






























Interactive Weather Map New forecast layout! Learn more

10-Day Weather Forecast

Advertisements
Track Severe Weather on mobile